CheckWX is a tool to help pilots better visualize weather data.  It is not intended as a substitute for an official pre-flight weather briefing.

22:24:16 UTC

KQHY METAR
Hurlbert
Hurlbert, Florida, USA
Current

28 mins ago

KQHY 082156Z AUTO 25005KT 10SM OVC007 25/23 A2985 RMK AO2 LTG DSNT N SLP115 T02540234
Observed
Apr-8 @ 21:56 UTC
Wind
  • 250° at 5 KTS
Visibility
Flight Rules
IFR
Cloud Levels
  • Overcast at 700' AGL
Temperature
25°C / 77°F
Dewpoint
23°C / 73°F
Humidity
89%
Altimeter
29.85" Hg
Pressure
1010.82 hPa
Previous

40 mins ago

KQHY 082144Z AUTO 25006KT 10SM OVC007 25/23 A2985 RMK AO2 LTG DSNT N SLP115
Observed
Apr-8 @ 21:44 UTC
Wind
  • 250° at 6 KTS
Visibility
Flight Rules
IFR
Cloud Levels
  • Overcast at 700' AGL
Temperature
25°C / 77°F
Dewpoint
23°C / 73°F
Humidity
89%
Altimeter
29.85" Hg
Pressure
1010.82 hPa
Previous

52 mins ago

KQHY 082132Z AUTO 25005KT 10SM OVC006 25/23 A2986 RMK AO2 CIG 006V008 SLP118
Observed
Apr-8 @ 21:32 UTC
Wind
  • 250° at 5 KTS
Visibility
Flight Rules
IFR
Cloud Levels
  • Overcast at 600' AGL
Temperature
25°C / 77°F
Dewpoint
23°C / 73°F
Humidity
89%
Altimeter
29.86" Hg
Pressure
1011.22 hPa